createdAt,value
2016-12-23T00:00:35.004Z,0
2016-12-23T00:01:43.696Z,0
2016-12-23T00:02:52.393Z,0
2016-12-23T00:04:01.080Z,0
2016-12-23T00:05:09.770Z,0
2016-12-23T00:06:18.467Z,0
2016-12-23T00:07:27.160Z,0
2016-12-23T00:08:35.851Z,0
2016-12-23T00:09:44.544Z,0
2016-12-23T00:10:53.236Z,0
2016-12-23T00:12:01.933Z,0
2016-12-23T00:13:10.634Z,0
2016-12-23T00:14:19.323Z,0
2016-12-23T00:15:28.021Z,0
2016-12-23T00:16:36.715Z,0
2016-12-23T00:17:45.405Z,0
2016-12-23T00:18:54.124Z,0
2016-12-23T00:20:02.817Z,0
2016-12-23T00:21:11.513Z,0
2016-12-23T00:22:20.199Z,0
2016-12-23T00:23:28.891Z,0
2016-12-23T00:24:37.583Z,0
2016-12-23T00:25:46.274Z,0
2016-12-23T00:26:54.963Z,0
2016-12-23T00:28:03.655Z,0
2016-12-23T00:29:12.348Z,0
2016-12-23T00:30:21.043Z,0
2016-12-23T00:31:29.736Z,0
2016-12-23T00:32:38.431Z,0
2016-12-23T00:33:47.122Z,0
2016-12-23T00:34:55.815Z,0
2016-12-23T00:36:04.505Z,0
2016-12-23T00:37:13.193Z,0
2016-12-23T00:38:21.885Z,0
2016-12-23T00:39:30.577Z,0
2016-12-23T00:40:39.275Z,0
2016-12-23T00:41:47.971Z,0
2016-12-23T00:42:56.661Z,0
2016-12-23T00:44:05.349Z,0
2016-12-23T00:45:14.037Z,0
2016-12-23T00:46:22.734Z,0
2016-12-23T00:47:31.429Z,0
2016-12-23T00:48:40.122Z,0
2016-12-23T00:49:49.134Z,0
2016-12-23T00:50:57.827Z,0
2016-12-23T00:52:06.518Z,0
2016-12-23T00:53:15.207Z,0
2016-12-23T00:54:23.899Z,0
2016-12-23T00:55:32.591Z,0
2016-12-23T00:56:41.284Z,0
2016-12-23T00:57:49.975Z,0
2016-12-23T00:58:58.664Z,0
2016-12-23T01:00:07.362Z,0
2016-12-23T01:01:16.052Z,0
2016-12-23T01:02:24.738Z,0
2016-12-23T01:03:33.431Z,0
2016-12-23T01:04:42.120Z,0
2016-12-23T01:05:50.816Z,0
2016-12-23T01:06:59.833Z,0
2016-12-23T01:08:08.526Z,0
2016-12-23T01:09:17.221Z,0
2016-12-23T01:10:25.913Z,0
2016-12-23T01:11:34.609Z,0
2016-12-23T01:12:43.299Z,0
2016-12-23T01:13:51.989Z,0
2016-12-23T01:15:00.680Z,0
2016-12-23T01:16:09.372Z,0
2016-12-23T01:17:18.069Z,0
2016-12-23T01:18:26.759Z,0
2016-12-23T01:19:35.452Z,0
2016-12-23T01:20:44.143Z,0
2016-12-23T01:21:52.838Z,0
2016-12-23T01:23:01.528Z,0
2016-12-23T01:24:10.220Z,0
2016-12-23T01:25:18.913Z,0
2016-12-23T01:26:27.614Z,0
2016-12-23T01:27:36.312Z,0
2016-12-23T01:28:44.997Z,0
2016-12-23T01:29:53.694Z,0
2016-12-23T01:31:02.389Z,0
2016-12-23T01:32:11.081Z,0
2016-12-23T01:33:19.785Z,0
2016-12-23T01:34:28.504Z,0
2016-12-23T01:35:37.199Z,0
2016-12-23T01:36:45.890Z,0
2016-12-23T01:37:54.580Z,0
2016-12-23T01:39:03.278Z,0
2016-12-23T01:40:11.969Z,0
2016-12-23T01:41:20.662Z,0
2016-12-23T01:42:29.355Z,0
2016-12-23T01:43:38.048Z,0
2016-12-23T01:44:46.740Z,0
2016-12-23T01:45:55.429Z,0
2016-12-23T01:47:04.122Z,0
2016-12-23T01:48:12.814Z,0
2016-12-23T01:49:21.504Z,0
2016-12-23T01:50:30.196Z,0
2016-12-23T01:51:38.891Z,0
2016-12-23T01:52:47.583Z,0
2016-12-23T01:53:56.271Z,0
2016-12-23T01:55:05.287Z,0
2016-12-23T01:56:13.979Z,0
2016-12-23T01:57:22.667Z,0
2016-12-23T01:58:31.361Z,0
2016-12-23T01:59:40.051Z,0
2016-12-23T02:00:48.743Z,0
2016-12-23T02:01:57.437Z,0
2016-12-23T02:03:06.139Z,0
2016-12-23T02:04:14.859Z,0
2016-12-23T02:05:23.864Z,0
2016-12-23T02:06:32.558Z,0
2016-12-23T02:07:41.247Z,0
2016-12-23T02:08:49.934Z,0
2016-12-23T02:09:58.626Z,0
2016-12-23T02:11:07.316Z,0
2016-12-23T02:12:16.007Z,0
2016-12-23T02:13:24.696Z,0
2016-12-23T02:14:33.390Z,0
2016-12-23T02:15:42.088Z,0
2016-12-23T02:16:50.779Z,0
2016-12-23T02:17:59.476Z,0
2016-12-23T02:19:08.194Z,0
2016-12-23T02:20:16.882Z,0
2016-12-23T02:21:25.572Z,0
2016-12-23T02:22:34.262Z,0
2016-12-23T02:23:42.955Z,0
2016-12-23T02:24:51.644Z,0
2016-12-23T02:26:00.335Z,0
2016-12-23T02:27:09.029Z,0
2016-12-23T02:28:17.721Z,0
2016-12-23T02:29:26.409Z,0
2016-12-23T02:30:35.103Z,0
2016-12-23T02:31:43.796Z,0
2016-12-23T02:32:52.490Z,0
2016-12-23T02:34:01.180Z,0
2016-12-23T02:35:09.880Z,0
2016-12-23T02:36:18.598Z,0
2016-12-23T02:37:27.288Z,0
2016-12-23T02:38:35.977Z,0
2016-12-23T02:39:44.667Z,0
2016-12-23T02:40:53.360Z,0
2016-12-23T02:42:02.086Z,0
2016-12-23T02:43:10.778Z,0
2016-12-23T02:44:19.467Z,0
2016-12-23T02:45:28.163Z,0
2016-12-23T02:46:37.174Z,0
2016-12-23T02:47:45.863Z,0
2016-12-23T02:48:54.554Z,0
2016-12-23T02:50:03.245Z,0
2016-12-23T02:51:11.941Z,0
2016-12-23T02:52:20.628Z,0
2016-12-23T02:53:29.318Z,0
2016-12-23T02:54:38.011Z,0
2016-12-23T02:55:46.705Z,0
2016-12-23T02:56:55.395Z,0
2016-12-23T02:58:04.089Z,0
2016-12-23T02:59:12.784Z,0
2016-12-23T03:00:21.473Z,0
2016-12-23T03:01:30.199Z,0
2016-12-23T03:02:38.892Z,0
2016-12-23T03:03:47.578Z,0
2016-12-23T03:04:56.267Z,0
2016-12-23T03:06:04.973Z,0
2016-12-23T03:07:13.695Z,0
2016-12-23T03:08:22.385Z,0
2016-12-23T03:09:31.074Z,0
2016-12-23T03:10:40.084Z,0
2016-12-23T03:11:48.777Z,0
2016-12-23T03:12:57.465Z,0
2016-12-23T03:14:06.159Z,0
2016-12-23T03:15:14.851Z,0
2016-12-23T03:16:23.541Z,0
2016-12-23T03:17:32.264Z,0
2016-12-23T03:18:40.957Z,0
2016-12-23T03:19:49.647Z,0
2016-12-23T03:20:58.342Z,0
2016-12-23T03:22:07.362Z,0
2016-12-23T03:23:16.056Z,0
2016-12-23T03:24:24.751Z,0
2016-12-23T03:25:33.440Z,0
2016-12-23T03:26:42.136Z,0
2016-12-23T03:27:50.824Z,0
2016-12-23T03:28:59.511Z,0
2016-12-23T03:30:08.208Z,0
2016-12-23T03:31:16.904Z,0
2016-12-23T03:32:25.600Z,0
2016-12-23T03:33:34.609Z,0
2016-12-23T03:34:43.305Z,0
2016-12-23T03:35:52.005Z,0
2016-12-23T03:37:01.009Z,0
2016-12-23T03:38:09.704Z,0
2016-12-23T03:39:18.392Z,0
2016-12-23T03:40:27.087Z,0
2016-12-23T03:41:35.776Z,0
2016-12-23T03:42:44.468Z,0
2016-12-23T03:43:53.158Z,0
2016-12-23T03:45:01.854Z,0
2016-12-23T03:46:10.545Z,0
2016-12-23T03:47:19.237Z,0
2016-12-23T03:48:27.931Z,0
2016-12-23T03:49:36.619Z,0
2016-12-23T03:50:45.317Z,0
2016-12-23T03:51:54.005Z,0
2016-12-23T03:53:02.704Z,0
2016-12-23T03:54:11.400Z,0
2016-12-23T03:55:20.092Z,0
2016-12-23T03:56:28.790Z,0
2016-12-23T03:57:37.479Z,0
2016-12-23T03:58:46.173Z,0
2016-12-23T03:59:54.869Z,0
2016-12-23T04:01:03.559Z,0
2016-12-23T04:02:12.260Z,0
2016-12-23T04:03:20.953Z,0
2016-12-23T04:04:29.649Z,0
2016-12-23T04:05:38.342Z,0
2016-12-23T04:06:47.036Z,0
2016-12-23T04:07:55.724Z,0
2016-12-23T04:09:04.419Z,0
2016-12-23T04:10:13.112Z,0
2016-12-23T04:11:21.853Z,0
2016-12-23T04:12:30.542Z,0
2016-12-23T04:13:39.282Z,0
2016-12-23T04:14:47.972Z,0
2016-12-23T04:15:56.666Z,0
2016-12-23T04:17:05.357Z,0
2016-12-23T04:18:14.050Z,0
2016-12-23T04:19:22.746Z,0
2016-12-23T04:20:31.753Z,0
2016-12-23T04:21:40.447Z,0
2016-12-23T04:22:49.138Z,0
2016-12-23T04:23:57.838Z,0
2016-12-23T04:25:06.527Z,0
2016-12-23T04:26:15.221Z,0
2016-12-23T04:27:23.908Z,0
2016-12-23T04:28:32.605Z,0
2016-12-23T04:29:41.293Z,0
2016-12-23T04:30:49.986Z,0
2016-12-23T04:31:58.672Z,0
2016-12-23T04:33:07.361Z,0
2016-12-23T04:34:16.049Z,0
2016-12-23T04:35:24.745Z,0
2016-12-23T04:36:33.444Z,0
2016-12-23T04:37:42.160Z,0
2016-12-23T04:38:50.855Z,0
2016-12-23T04:39:59.651Z,0
2016-12-23T04:41:08.343Z,0
2016-12-23T04:42:17.047Z,0
2016-12-23T04:43:25.737Z,0
2016-12-23T04:44:34.433Z,0
2016-12-23T04:45:43.441Z,0
2016-12-23T04:46:52.128Z,0
2016-12-23T04:48:00.822Z,0
2016-12-23T04:49:09.522Z,0
2016-12-23T04:50:18.214Z,0
2016-12-23T04:51:26.905Z,0
2016-12-23T04:52:35.600Z,0
2016-12-23T04:53:44.289Z,0
2016-12-23T04:54:52.982Z,0
2016-12-23T04:56:01.673Z,0
2016-12-23T04:57:10.363Z,0
2016-12-23T04:58:19.051Z,0
2016-12-23T04:59:27.741Z,0
2016-12-23T05:00:36.432Z,0
2016-12-23T05:01:45.124Z,0
2016-12-23T05:02:53.847Z,0
2016-12-23T05:04:02.544Z,0
2016-12-23T05:05:11.233Z,0
2016-12-23T05:06:19.920Z,0
2016-12-23T05:07:28.607Z,0
2016-12-23T05:08:37.297Z,0
2016-12-23T05:09:45.993Z,0
2016-12-23T05:10:54.684Z,0
2016-12-23T05:12:03.375Z,0
2016-12-23T05:13:12.073Z,0
2016-12-23T05:14:20.764Z,0
2016-12-23T05:15:29.455Z,0
2016-12-23T05:16:38.149Z,0
2016-12-23T05:17:46.868Z,0
2016-12-23T05:18:55.560Z,0
2016-12-23T05:20:04.251Z,0
2016-12-23T05:21:12.941Z,0
2016-12-23T05:22:21.639Z,0
2016-12-23T05:23:30.347Z,0
2016-12-23T05:24:39.044Z,0
2016-12-23T05:25:47.758Z,0
2016-12-23T05:26:56.448Z,0
2016-12-23T05:28:05.143Z,0
2016-12-23T05:29:13.837Z,0
2016-12-23T05:30:22.529Z,0
2016-12-23T05:31:31.224Z,0
2016-12-23T05:32:39.941Z,0
2016-12-23T05:33:48.634Z,0
2016-12-23T05:34:57.324Z,0
2016-12-23T05:36:06.015Z,0
2016-12-23T05:37:14.710Z,0
2016-12-23T05:38:23.402Z,0
2016-12-23T05:39:32.092Z,0
2016-12-23T05:40:40.811Z,0
2016-12-23T05:41:49.500Z,0
2016-12-23T05:42:58.192Z,0
2016-12-23T05:44:06.887Z,0
2016-12-23T05:45:15.580Z,0
2016-12-23T05:46:24.271Z,0
2016-12-23T05:47:32.960Z,0
2016-12-23T05:48:41.650Z,0
2016-12-23T05:49:50.343Z,0
2016-12-23T05:50:59.033Z,0
2016-12-23T05:52:07.733Z,0
2016-12-23T05:53:16.424Z,0
2016-12-23T05:54:25.116Z,0
2016-12-23T05:55:33.811Z,0
2016-12-23T05:56:42.821Z,0
2016-12-23T05:57:51.522Z,0
2016-12-23T05:59:00.249Z,0
2016-12-23T06:00:08.944Z,0
2016-12-23T06:01:17.633Z,0
2016-12-23T06:02:26.345Z,0
2016-12-23T06:03:35.033Z,0
2016-12-23T06:04:43.725Z,0
2016-12-23T06:05:52.417Z,0
2016-12-23T06:07:01.108Z,0
2016-12-23T06:08:09.798Z,0
2016-12-23T06:09:18.495Z,0
2016-12-23T06:10:27.192Z,0
2016-12-23T06:11:35.881Z,0
2016-12-23T06:12:44.570Z,0
2016-12-23T06:13:53.264Z,0
2016-12-23T06:15:01.954Z,0
2016-12-23T06:16:10.663Z,0
2016-12-23T06:17:19.357Z,0
2016-12-23T06:18:28.048Z,0
2016-12-23T06:19:36.736Z,0
2016-12-23T06:20:45.747Z,0
2016-12-23T06:21:54.445Z,0
2016-12-23T06:23:03.137Z,0
2016-12-23T06:24:11.835Z,0
2016-12-23T06:25:20.522Z,0
2016-12-23T06:26:29.210Z,0
2016-12-23T06:27:37.925Z,0
2016-12-23T06:28:46.619Z,0
2016-12-23T06:29:55.312Z,0
2016-12-23T06:31:04.007Z,0
2016-12-23T06:32:12.697Z,0
2016-12-23T06:33:21.390Z,0
2016-12-23T06:34:30.084Z,0
2016-12-23T06:35:38.774Z,0
2016-12-23T06:36:47.463Z,0
2016-12-23T06:37:56.152Z,0
2016-12-23T06:39:04.863Z,0
2016-12-23T06:40:13.551Z,0
2016-12-23T06:41:22.244Z,0
2016-12-23T06:42:30.932Z,0
2016-12-23T06:43:39.623Z,0
2016-12-23T06:44:48.315Z,0
2016-12-23T06:45:57.004Z,0
2016-12-23T06:47:05.694Z,0
2016-12-23T06:48:14.383Z,0
2016-12-23T06:49:23.070Z,0
2016-12-23T06:50:31.767Z,0
2016-12-23T06:51:40.496Z,0
2016-12-23T06:52:49.211Z,0
2016-12-23T06:53:57.903Z,0
2016-12-23T06:55:06.603Z,0
2016-12-23T06:56:15.290Z,0
2016-12-23T06:57:23.986Z,0
2016-12-23T06:58:32.674Z,0
2016-12-23T06:59:41.365Z,0
2016-12-23T07:00:50.066Z,0
2016-12-23T07:01:58.755Z,0
2016-12-23T07:03:07.444Z,0
2016-12-23T07:04:16.136Z,0
2016-12-23T07:05:24.832Z,0
2016-12-23T07:06:33.527Z,0
2016-12-23T07:07:42.217Z,0
2016-12-23T07:08:50.939Z,0
2016-12-23T07:09:59.628Z,0
2016-12-23T07:11:08.346Z,0
2016-12-23T07:12:17.037Z,0
2016-12-23T07:13:25.727Z,0
2016-12-23T07:14:34.418Z,0
2016-12-23T07:15:43.113Z,0
2016-12-23T07:16:51.802Z,0
2016-12-23T07:18:00.518Z,0
2016-12-23T07:19:09.217Z,0
2016-12-23T07:20:17.904Z,0
2016-12-23T07:21:26.594Z,0
2016-12-23T07:22:35.281Z,0
2016-12-23T07:23:43.972Z,0
2016-12-23T07:24:52.660Z,0
2016-12-23T07:26:01.351Z,0
2016-12-23T07:27:10.048Z,0
2016-12-23T07:28:18.742Z,0
2016-12-23T07:29:27.441Z,0
2016-12-23T07:30:36.134Z,4
2016-12-23T07:31:44.831Z,4
2016-12-23T07:32:53.537Z,0
2016-12-23T07:34:02.252Z,0
2016-12-23T07:35:10.946Z,4
2016-12-23T07:36:19.633Z,4
2016-12-23T07:37:28.327Z,4
2016-12-23T07:38:37.015Z,4
2016-12-23T07:39:45.707Z,4
2016-12-23T07:40:54.397Z,4
2016-12-23T07:42:03.089Z,8
2016-12-23T07:43:11.790Z,8
2016-12-23T07:44:20.481Z,8
2016-12-23T07:45:29.175Z,12
2016-12-23T07:46:37.866Z,12
2016-12-23T07:47:46.561Z,12
2016-12-23T07:48:55.249Z,12
2016-12-23T07:50:03.939Z,16
2016-12-23T07:51:12.630Z,16
2016-12-23T07:52:21.344Z,20
2016-12-23T07:53:30.034Z,24
2016-12-23T07:54:38.722Z,24
2016-12-23T07:55:47.735Z,28
2016-12-23T07:56:56.421Z,32
2016-12-23T07:58:05.111Z,36
2016-12-23T07:59:13.804Z,40
2016-12-23T08:00:22.496Z,48
2016-12-23T08:01:31.188Z,52
2016-12-23T08:02:39.887Z,56
2016-12-23T08:03:48.581Z,60
2016-12-23T08:04:57.269Z,68
2016-12-23T08:06:05.961Z,76
2016-12-23T08:07:14.655Z,80
2016-12-23T08:08:23.343Z,92
2016-12-23T08:09:32.349Z,100
2016-12-23T08:10:41.050Z,108
2016-12-23T08:11:49.740Z,116
2016-12-23T08:12:58.438Z,128
2016-12-23T08:14:07.132Z,136
2016-12-23T08:15:15.819Z,148
2016-12-23T08:16:24.510Z,160
2016-12-23T08:17:33.232Z,172
2016-12-23T08:18:41.936Z,184
2016-12-23T08:19:50.630Z,196
2016-12-23T08:20:59.318Z,208
2016-12-23T08:22:08.013Z,224
2016-12-23T08:23:16.701Z,236
2016-12-23T08:24:25.391Z,252
2016-12-23T08:25:34.084Z,268
2016-12-23T08:26:42.773Z,284
2016-12-23T08:27:51.468Z,304
2016-12-23T08:29:00.160Z,316
2016-12-23T08:30:08.852Z,332
2016-12-23T08:31:17.541Z,352
2016-12-23T08:32:26.258Z,368
2016-12-23T08:33:34.977Z,388
2016-12-23T08:34:43.667Z,404
2016-12-23T08:35:52.354Z,424
2016-12-23T08:37:01.048Z,440
2016-12-23T08:38:09.741Z,460
2016-12-23T08:39:18.433Z,480
2016-12-23T08:40:27.127Z,500
2016-12-23T08:41:35.817Z,516
2016-12-23T08:42:44.506Z,536
2016-12-23T08:43:53.198Z,556
2016-12-23T08:45:01.889Z,576
2016-12-23T08:46:10.581Z,596
2016-12-23T08:47:19.278Z,616
2016-12-23T08:48:27.970Z,636
2016-12-23T08:49:36.672Z,656
2016-12-23T08:50:45.357Z,676
2016-12-23T08:51:54.049Z,696
2016-12-23T08:53:02.742Z,712
2016-12-23T08:54:11.433Z,736
2016-12-23T08:55:20.125Z,756
2016-12-23T08:56:28.840Z,776
2016-12-23T08:57:37.530Z,796
2016-12-23T08:58:46.219Z,816
2016-12-23T08:59:54.940Z,836
2016-12-23T09:01:03.633Z,852
2016-12-23T09:02:12.326Z,876
2016-12-23T09:03:21.022Z,892
2016-12-23T09:04:29.710Z,908
2016-12-23T09:05:38.404Z,932
2016-12-23T09:06:47.095Z,952
2016-12-23T09:07:55.784Z,980
2016-12-23T09:09:04.527Z,1016
2016-12-23T09:10:13.214Z,1056
2016-12-23T09:11:21.906Z,1084
2016-12-23T09:12:30.599Z,1088
2016-12-23T09:13:39.289Z,1100
2016-12-23T09:14:47.977Z,1120
2016-12-23T09:15:56.667Z,1132
2016-12-23T09:17:05.360Z,1148
2016-12-23T09:18:14.047Z,1164
2016-12-23T09:19:22.740Z,1180
2016-12-23T09:20:31.431Z,1196
2016-12-23T09:21:40.121Z,1216
2016-12-23T09:22:48.816Z,1232
2016-12-23T09:23:57.533Z,1248
2016-12-23T09:25:06.222Z,1268
2016-12-23T09:26:14.917Z,1292
2016-12-23T09:27:23.608Z,1320
2016-12-23T09:28:32.303Z,1344
2016-12-23T09:29:40.993Z,1356
2016-12-23T09:30:49.683Z,1360
2016-12-23T09:31:58.375Z,1360
2016-12-23T09:33:07.070Z,1368
2016-12-23T09:34:15.764Z,1384
2016-12-23T09:35:24.484Z,1396
2016-12-23T09:36:33.174Z,1400
2016-12-23T09:37:41.864Z,1408
2016-12-23T09:38:50.553Z,1416
2016-12-23T09:39:59.242Z,1440
2016-12-23T09:41:07.933Z,1448
2016-12-23T09:42:16.625Z,1452
2016-12-23T09:43:25.316Z,1460
2016-12-23T09:44:34.008Z,1464
2016-12-23T09:45:42.704Z,1452
2016-12-23T09:46:51.393Z,1440
2016-12-23T09:48:00.087Z,1448
2016-12-23T09:49:08.780Z,1452
2016-12-23T09:50:17.481Z,1456
2016-12-23T09:51:26.182Z,1484
2016-12-23T09:52:34.879Z,1524
2016-12-23T09:53:43.582Z,1572
2016-12-23T09:54:52.274Z,1612
2016-12-23T09:56:00.967Z,1652
2016-12-23T09:57:09.656Z,1676
2016-12-23T09:58:18.346Z,1684
2016-12-23T09:59:27.038Z,1696
2016-12-23T10:00:35.732Z,1708
2016-12-23T10:01:44.448Z,1724
2016-12-23T10:02:53.138Z,1736
2016-12-23T10:04:01.827Z,1756
2016-12-23T10:05:10.519Z,1768
2016-12-23T10:06:19.242Z,1776
2016-12-23T10:07:27.960Z,1788
2016-12-23T10:08:36.655Z,1792
2016-12-23T10:09:45.356Z,1808
2016-12-23T10:10:54.074Z,1808
2016-12-23T10:12:02.764Z,1816
2016-12-23T10:13:11.455Z,1820
2016-12-23T10:14:20.167Z,1820
2016-12-23T10:15:28.855Z,1824
2016-12-23T10:16:37.552Z,1828
2016-12-23T10:17:46.251Z,1836
2016-12-23T10:18:54.950Z,1840
2016-12-23T10:20:03.638Z,1852
2016-12-23T10:21:12.333Z,1868
2016-12-23T10:22:21.021Z,1876
2016-12-23T10:23:29.712Z,1888
2016-12-23T10:24:38.410Z,1900
2016-12-23T10:25:47.101Z,1900
2016-12-23T10:26:55.793Z,1928
2016-12-23T10:28:04.484Z,1960
2016-12-23T10:29:13.203Z,1980
2016-12-23T10:30:21.894Z,1984
2016-12-23T10:31:30.590Z,1996
2016-12-23T10:32:39.284Z,2012
2016-12-23T10:33:47.974Z,2144
2016-12-23T10:34:56.664Z,3808
2016-12-23T10:36:05.362Z,5428
2016-12-23T10:37:14.055Z,5568
2016-12-23T10:38:22.750Z,5604
2016-12-23T10:39:31.442Z,5656
2016-12-23T10:40:40.136Z,5800
2016-12-23T10:41:48.830Z,5912
2016-12-23T10:42:57.521Z,6076
2016-12-23T10:44:06.213Z,5828
2016-12-23T10:45:14.907Z,5628
2016-12-23T10:46:23.596Z,5308
2016-12-23T10:47:32.292Z,5644
2016-12-23T10:48:40.986Z,5772
2016-12-23T10:49:49.679Z,5932
2016-12-23T10:50:58.373Z,6376
2016-12-23T10:52:07.068Z,6376
2016-12-23T10:53:15.766Z,6444
2016-12-23T10:54:24.462Z,6600
2016-12-23T10:55:33.154Z,6784
2016-12-23T10:56:41.847Z,6804
2016-12-23T10:57:50.873Z,6656
2016-12-23T10:58:59.572Z,6660
2016-12-23T11:00:08.583Z,6968
2016-12-23T11:01:17.285Z,7036
2016-12-23T11:02:25.986Z,7036
2016-12-23T11:03:34.992Z,7148
2016-12-23T11:04:43.684Z,7112
2016-12-23T11:05:52.377Z,7324
2016-12-23T11:07:01.078Z,7308
2016-12-23T11:08:09.778Z,7824
2016-12-23T11:09:18.495Z,7676
2016-12-23T11:10:27.189Z,7356
2016-12-23T11:11:35.912Z,7516
2016-12-23T11:12:44.612Z,7460
2016-12-23T11:13:53.317Z,7340
2016-12-23T11:15:02.017Z,7392
2016-12-23T11:16:10.713Z,7332
2016-12-23T11:17:19.406Z,7488
2016-12-23T11:18:28.098Z,7664
2016-12-23T11:19:36.799Z,7876
2016-12-23T11:20:45.493Z,7908
2016-12-23T11:21:54.189Z,7976
2016-12-23T11:23:02.887Z,7952
2016-12-23T11:24:11.586Z,8140
2016-12-23T11:25:20.286Z,8284
2016-12-23T11:26:28.991Z,8288
2016-12-23T11:27:37.691Z,8456
2016-12-23T11:28:46.388Z,8644
2016-12-23T11:29:55.084Z,8496
2016-12-23T11:31:03.780Z,8336
2016-12-23T11:32:12.480Z,8388
2016-12-23T11:33:21.178Z,8432
2016-12-23T11:34:29.872Z,8388
2016-12-23T11:35:38.569Z,8436
2016-12-23T11:36:47.263Z,8572
2016-12-23T11:37:55.962Z,8432
2016-12-23T11:39:04.663Z,8440
2016-12-23T11:40:13.359Z,8504
2016-12-23T11:41:22.058Z,8600
2016-12-23T11:42:30.754Z,8680
2016-12-23T11:43:39.449Z,8440
2016-12-23T11:44:48.153Z,8368
2016-12-23T11:45:56.890Z,8380
2016-12-23T11:47:05.585Z,8352
2016-12-23T11:48:14.286Z,8292
2016-12-23T11:49:22.981Z,7484
2016-12-23T11:50:31.679Z,6968
2016-12-23T11:51:40.405Z,6192
2016-12-23T11:52:49.109Z,5660
2016-12-23T11:53:57.809Z,5560
2016-12-23T11:55:06.509Z,5520
2016-12-23T11:56:15.204Z,5044
2016-12-23T11:57:23.899Z,4388
2016-12-23T11:58:32.601Z,3448
2016-12-23T11:59:41.306Z,2932
2016-12-23T12:00:50.004Z,2528
2016-12-23T12:01:58.698Z,2436
2016-12-23T12:03:07.397Z,2300
2016-12-23T12:04:16.095Z,2264
2016-12-23T12:05:24.790Z,1888
2016-12-23T12:06:33.485Z,1700
2016-12-23T12:07:42.180Z,1616
2016-12-23T12:08:50.876Z,1556
2016-12-23T12:09:59.574Z,1504
2016-12-23T12:11:08.263Z,1464
2016-12-23T12:12:16.956Z,1408
2016-12-23T12:13:25.657Z,1364
2016-12-23T12:14:34.357Z,1340
2016-12-23T12:15:43.054Z,1344
2016-12-23T12:16:52.068Z,1356
2016-12-23T12:18:00.766Z,1388
2016-12-23T12:19:09.462Z,1444
2016-12-23T12:20:18.156Z,1516
2016-12-23T12:21:26.855Z,1576
2016-12-23T12:22:35.552Z,1600
2016-12-23T12:23:44.349Z,1616
2016-12-23T12:24:53.043Z,1660
2016-12-23T12:26:01.737Z,1708
2016-12-23T12:27:10.435Z,1768
2016-12-23T12:28:19.128Z,1788
2016-12-23T12:29:27.824Z,1784
2016-12-23T12:30:36.551Z,1768
2016-12-23T12:31:45.559Z,1728
2016-12-23T12:32:54.257Z,1688
2016-12-23T12:34:02.951Z,1652
2016-12-23T12:35:11.647Z,1612
2016-12-23T12:36:20.376Z,1564
2016-12-23T12:37:29.067Z,1504
2016-12-23T12:38:37.757Z,1420
2016-12-23T12:39:46.453Z,1336
2016-12-23T12:40:55.154Z,1276
2016-12-23T12:42:03.848Z,1236
2016-12-23T12:43:12.538Z,1220
2016-12-23T12:44:21.231Z,1224
2016-12-23T12:45:29.929Z,1236
2016-12-23T12:46:38.624Z,1252
2016-12-23T12:47:47.321Z,1260
2016-12-23T12:48:56.011Z,1264
2016-12-23T12:50:04.704Z,1260
2016-12-23T12:51:13.404Z,1260
2016-12-23T12:52:22.097Z,1236
2016-12-23T12:53:30.790Z,1244
2016-12-23T12:54:39.485Z,1264
2016-12-23T12:55:48.181Z,1260
2016-12-23T12:56:56.876Z,1288
2016-12-23T12:58:05.569Z,1340
2016-12-23T12:59:14.264Z,1404
2016-12-23T13:00:22.962Z,1480
2016-12-23T13:01:32.001Z,1588
2016-12-23T13:02:40.694Z,1656
2016-12-23T13:03:49.391Z,1696
2016-12-23T13:04:58.082Z,1696
2016-12-23T13:06:06.773Z,1684
2016-12-23T13:07:15.467Z,1656
2016-12-23T13:08:24.160Z,1620
2016-12-23T13:09:32.853Z,1676
2016-12-23T13:10:41.547Z,1600
2016-12-23T13:11:50.255Z,1480
2016-12-23T13:12:58.947Z,1440
2016-12-23T13:14:07.641Z,1420
2016-12-23T13:15:16.330Z,1388
2016-12-23T13:16:25.024Z,1352
2016-12-23T13:17:33.718Z,1332
2016-12-23T13:18:42.445Z,1316
2016-12-23T13:19:51.141Z,1304
2016-12-23T13:20:59.834Z,1288
2016-12-23T13:22:08.556Z,1260
2016-12-23T13:23:17.248Z,1220
2016-12-23T13:24:25.942Z,1176
2016-12-23T13:25:34.634Z,1132
2016-12-23T13:26:43.641Z,1088
2016-12-23T13:27:52.342Z,1020
2016-12-23T13:29:01.039Z,944
2016-12-23T13:30:09.736Z,876
2016-12-23T13:31:18.432Z,800
2016-12-23T13:32:27.127Z,732
2016-12-23T13:33:35.828Z,692
2016-12-23T13:34:44.518Z,660
2016-12-23T13:35:53.209Z,652
2016-12-23T13:37:01.905Z,648
2016-12-23T13:38:10.596Z,640
2016-12-23T13:39:19.288Z,628
2016-12-23T13:40:28.007Z,608
2016-12-23T13:41:36.699Z,592
2016-12-23T13:42:45.392Z,580
2016-12-23T13:43:54.136Z,560
2016-12-23T13:45:02.829Z,532
2016-12-23T13:46:11.523Z,500
2016-12-23T13:47:20.247Z,468
2016-12-23T13:48:28.940Z,444
2016-12-23T13:49:37.636Z,420
2016-12-23T13:50:46.332Z,396
2016-12-23T13:51:55.024Z,376
2016-12-23T13:53:03.719Z,356
2016-12-23T13:54:12.417Z,336
2016-12-23T13:55:21.112Z,316
2016-12-23T13:56:29.808Z,296
2016-12-23T13:57:38.506Z,280
2016-12-23T13:58:47.229Z,268
2016-12-23T13:59:55.924Z,252
2016-12-23T14:01:04.615Z,240
2016-12-23T14:02:13.310Z,224
2016-12-23T14:03:22.002Z,208
2016-12-23T14:04:30.699Z,196
2016-12-23T14:05:39.394Z,184
2016-12-23T14:06:48.094Z,168
2016-12-23T14:07:56.788Z,152
2016-12-23T14:09:05.515Z,144
2016-12-23T14:10:14.210Z,136
2016-12-23T14:11:22.902Z,124
2016-12-23T14:12:31.602Z,116
2016-12-23T14:13:40.295Z,108
2016-12-23T14:14:48.985Z,108
2016-12-23T14:15:57.679Z,100
2016-12-23T14:17:06.379Z,92
2016-12-23T14:18:15.072Z,84
2016-12-23T14:19:23.762Z,80
2016-12-23T14:20:32.451Z,76
2016-12-23T14:21:41.144Z,68
2016-12-23T14:22:49.838Z,64
2016-12-23T14:23:58.532Z,56
2016-12-23T14:25:07.226Z,52
2016-12-23T14:26:15.927Z,48
2016-12-23T14:27:24.623Z,40
2016-12-23T14:28:33.427Z,36
2016-12-23T14:29:42.269Z,32
2016-12-23T14:30:51.773Z,32
2016-12-23T14:32:15.675Z,24
2016-12-23T14:33:24.882Z,24
2016-12-23T14:34:33.728Z,20
2016-12-23T14:35:42.583Z,20
2016-12-23T14:36:51.426Z,16
2016-12-23T14:38:00.289Z,16
2016-12-23T14:39:09.134Z,12
2016-12-23T14:40:17.974Z,12
2016-12-23T14:41:26.817Z,12
2016-12-23T14:42:35.655Z,12
2016-12-23T14:43:44.499Z,8
2016-12-23T14:44:53.340Z,8
2016-12-23T14:46:02.179Z,4
2016-12-23T14:47:11.021Z,4
2016-12-23T14:48:19.887Z,8
2016-12-23T14:49:28.726Z,4
2016-12-23T14:50:37.567Z,4
2016-12-23T14:51:46.414Z,0
2016-12-23T14:52:55.260Z,4
2016-12-23T14:54:04.049Z,4
2016-12-23T14:55:12.762Z,4
2016-12-23T14:56:21.459Z,4
2016-12-23T14:57:30.153Z,0
2016-12-23T14:58:39.198Z,0
2016-12-23T14:59:47.893Z,0
2016-12-23T15:00:56.591Z,0
2016-12-23T15:02:05.282Z,0
2016-12-23T15:03:13.979Z,0
2016-12-23T15:04:22.673Z,0
2016-12-23T15:05:31.367Z,0
2016-12-23T15:06:40.058Z,0
2016-12-23T15:07:48.752Z,0
2016-12-23T15:08:57.445Z,0
2016-12-23T15:10:06.138Z,0
2016-12-23T15:11:14.835Z,0
2016-12-23T15:12:23.531Z,0
2016-12-23T15:13:32.224Z,0
2016-12-23T15:14:40.919Z,0
2016-12-23T15:15:49.620Z,0
2016-12-23T15:16:58.313Z,0
2016-12-23T15:18:07.014Z,0
2016-12-23T15:19:15.712Z,0
2016-12-23T15:20:24.407Z,0
2016-12-23T15:21:33.106Z,0
2016-12-23T15:22:41.801Z,0
2016-12-23T15:23:50.497Z,0
2016-12-23T15:24:59.218Z,0
2016-12-23T15:26:07.914Z,0
2016-12-23T15:27:16.610Z,0
2016-12-23T15:28:25.306Z,0
2016-12-23T15:29:33.997Z,0
2016-12-23T15:30:42.694Z,0
2016-12-23T15:31:51.389Z,0
2016-12-23T15:33:00.081Z,0
2016-12-23T15:34:08.776Z,0
2016-12-23T15:35:17.793Z,0
2016-12-23T15:36:26.487Z,0
2016-12-23T15:37:35.181Z,0
2016-12-23T15:38:43.879Z,0
2016-12-23T15:39:52.572Z,0
2016-12-23T15:41:01.267Z,0
2016-12-23T15:42:09.960Z,0
2016-12-23T15:43:18.653Z,0
2016-12-23T15:44:27.343Z,0
2016-12-23T15:45:36.037Z,0
2016-12-23T15:46:44.737Z,0
2016-12-23T15:47:53.426Z,0
2016-12-23T15:49:02.118Z,0
2016-12-23T15:50:10.810Z,0
2016-12-23T15:51:19.504Z,0
2016-12-23T15:52:28.204Z,0
2016-12-23T15:53:36.897Z,0
2016-12-23T15:54:45.592Z,0
2016-12-23T15:55:54.290Z,0
2016-12-23T15:57:02.983Z,0
2016-12-23T15:58:11.684Z,0
2016-12-23T15:59:20.696Z,0
2016-12-23T16:00:29.392Z,0
2016-12-23T16:01:38.091Z,0
2016-12-23T16:02:46.789Z,0
2016-12-23T16:03:55.487Z,0
2016-12-23T16:05:04.181Z,0
2016-12-23T16:06:12.872Z,0
2016-12-23T16:07:21.572Z,0
2016-12-23T16:08:30.262Z,0
2016-12-23T16:09:38.957Z,0
2016-12-23T16:10:47.655Z,0
2016-12-23T16:11:56.351Z,0
2016-12-23T16:13:05.046Z,0
2016-12-23T16:14:13.739Z,0
2016-12-23T16:15:22.439Z,0
2016-12-23T16:16:31.168Z,0
2016-12-23T16:17:39.866Z,0